Time;durP1;ratioP1;P1;durP2;ratioP2;P2;SDS_P1;SDS_P2;PMS_P1;PMS_P2;Temp;Humidity;BMP_temperature;BMP_pressure;BME280_temperature;BME280_humidity;BME280_pressure;Samples;Min_cycle;Max_cycle;Signal;HPM_P1;HPM_P2
2024/01/29 00:00:03;;;;;;;11.18;2.20;;;27.70;64.10;;;;;;5066597;28;20021;-81
2024/01/29 00:02:32;;;;;;;9.25;2.30;;;27.70;64.20;;;;;;5074428;28;20063;-81
2024/01/29 00:04:59;;;;;;;8.73;2.30;;;27.80;64.20;;;;;;5062399;28;20518;-82
2024/01/29 00:07:27;;;;;;;8.32;1.95;;;27.80;64.70;;;;;;5067518;28;20024;-79
2024/01/29 00:09:54;;;;;;;7.60;1.95;;;27.90;64.50;;;;;;5063031;28;20056;-80
2024/01/29 00:12:21;;;;;;;7.97;2.33;;;27.90;64.60;;;;;;5066633;28;20119;-80
2024/01/29 00:14:49;;;;;;;8.05;2.20;;;27.90;64.50;;;;;;5077063;28;20093;-79
2024/01/29 00:17:16;;;;;;;8.20;2.00;;;28.00;64.40;;;;;;5072530;28;20040;-79
2024/01/29 00:19:43;;;;;;;11.75;2.25;;;27.90;64.30;;;;;;5064946;28;20484;-85
2024/01/29 00:22:11;;;;;;;9.65;2.42;;;27.90;64.40;;;;;;5067626;28;20341;-80
2024/01/29 00:24:38;;;;;;;4.28;1.73;;;28.00;64.50;;;;;;5062632;28;20035;-79
2024/01/29 00:27:06;;;;;;;9.57;2.33;;;28.00;64.50;;;;;;5072337;28;20449;-79
2024/01/29 00:29:36;;;;;;;6.13;2.10;;;27.90;64.70;;;;;;5070202;28;20407;-79
2024/01/29 00:32:03;;;;;;;8.68;2.25;;;28.00;64.90;;;;;;5076978;28;20490;-79
2024/01/29 00:34:34;;;;;;;7.32;2.38;;;27.90;65.20;;;;;;5074057;28;20036;-80
2024/01/29 00:37:03;;;;;;;8.93;2.50;;;28.00;65.40;;;;;;5063687;28;20495;-79
2024/01/29 00:39:30;;;;;;;8.15;2.40;;;28.00;65.30;;;;;;5072695;28;20056;-78
2024/01/29 00:41:58;;;;;;;10.27;2.42;;;28.10;65.30;;;;;;5068974;28;20029;-77
2024/01/29 00:44:25;;;;;;;8.57;2.13;;;28.10;65.30;;;;;;5080503;28;20020;-80
2024/01/29 00:46:53;;;;;;;10.40;2.70;;;28.10;65.60;;;;;;5065630;28;20020;-77
2024/01/29 00:49:21;;;;;;;7.47;1.83;;;28.10;65.30;;;;;;5078510;28;20032;-78
2024/01/29 00:51:48;;;;;;;7.25;2.15;;;28.20;65.50;;;;;;5075383;28;20083;-78
2024/01/29 00:54:18;;;;;;;9.82;2.08;;;28.10;65.80;;;;;;5063347;28;20040;-80
2024/01/29 00:56:45;;;;;;;9.82;2.45;;;28.10;65.80;;;;;;5067038;28;20418;-80
2024/01/29 00:59:13;;;;;;;10.95;2.40;;;28.20;66.10;;;;;;5067696;28;20028;-77
2024/01/29 01:01:40;;;;;;;8.75;2.13;;;28.20;66.20;;;;;;5070957;28;20638;-82
2024/01/29 01:04:08;;;;;;;8.63;2.15;;;28.20;66.20;;;;;;5065852;28;20357;-83
2024/01/29 01:06:36;;;;;;;7.85;2.30;;;28.20;66.20;;;;;;5068558;28;20024;-80
2024/01/29 01:09:04;;;;;;;11.85;2.85;;;28.20;66.30;;;;;;5067753;28;20017;-81
2024/01/29 01:11:31;;;;;;;9.50;2.22;;;28.20;66.30;;;;;;5071426;28;20016;-86
2024/01/29 01:14:00;;;;;;;9.40;2.83;;;28.20;66.60;;;;;;5069761;28;20032;-81
2024/01/29 01:16:28;;;;;;;10.18;2.20;;;28.30;66.40;;;;;;5071851;28;20361;-81
2024/01/29 01:18:55;;;;;;;9.57;2.38;;;28.30;66.40;;;;;;5064803;28;20032;-80
2024/01/29 01:21:22;;;;;;;12.52;2.53;;;28.30;66.60;;;;;;5064804;28;20047;-80
2024/01/29 01:23:53;;;;;;;10.50;2.35;;;28.30;66.60;;;;;;5070971;28;20112;-81
2024/01/29 01:26:20;;;;;;;9.75;2.30;;;28.30;66.70;;;;;;5062466;28;20040;-80
2024/01/29 01:28:48;;;;;;;10.25;2.78;;;28.30;66.80;;;;;;5063415;28;20017;-87
2024/01/29 01:31:15;;;;;;;8.85;2.22;;;28.30;66.80;;;;;;5060191;28;20029;-84
2024/01/29 01:33:43;;;;;;;9.82;2.30;;;28.30;66.90;;;;;;5073150;28;20047;-84
2024/01/29 01:36:10;;;;;;;11.82;2.83;;;28.30;66.90;;;;;;5075212;28;20479;-80
2024/01/29 01:38:39;;;;;;;11.65;2.88;;;28.30;66.80;;;;;;5071155;28;20077;-87
2024/01/29 01:41:06;;;;;;;10.30;2.50;;;28.30;67.00;;;;;;5064095;28;20130;-87
2024/01/29 01:43:33;;;;;;;9.35;2.55;;;28.30;67.00;;;;;;5054083;28;20054;-82
2024/01/29 01:46:03;;;;;;;10.63;2.58;;;28.30;66.90;;;;;;5064686;28;20036;-84
2024/01/29 01:48:35;;;;;;;11.93;2.80;;;28.30;67.10;;;;;;5053744;28;20050;-80
2024/01/29 01:51:06;;;;;;;13.20;2.90;;;28.30;66.90;;;;;;5061120;28;20502;-86
2024/01/29 01:53:37;;;;;;;10.55;2.90;;;28.30;67.10;;;;;;5066612;28;20400;-81
2024/01/29 01:56:05;;;;;;;10.35;3.15;;;28.30;67.10;;;;;;5089200;28;20020;-81
2024/01/29 01:58:34;;;;;;;15.95;2.55;;;28.30;67.20;;;;;;5084558;28;20024;-82
2024/01/29 02:01:02;;;;;;;12.35;3.03;;;28.30;67.40;;;;;;5066016;28;20104;-81
2024/01/29 02:03:29;;;;;;;10.63;2.55;;;28.40;67.40;;;;;;5061494;28;20048;-80
2024/01/29 02:05:57;;;;;;;11.40;3.08;;;28.30;67.30;;;;;;5067148;28;20048;-87
2024/01/29 02:08:24;;;;;;;8.65;2.33;;;28.30;67.40;;;;;;5065649;28;20032;-81
2024/01/29 02:10:54;;;;;;;11.30;2.75;;;28.30;67.50;;;;;;5068754;28;20020;-92
2024/01/29 02:13:23;;;;;;;14.38;3.08;;;28.40;67.70;;;;;;5071737;28;20040;-87
2024/01/29 02:15:51;;;;;;;10.75;2.60;;;28.40;67.60;;;;;;5062944;28;20105;-80
2024/01/29 02:18:19;;;;;;;12.45;2.50;;;28.50;67.80;;;;;;5071861;28;20308;-81
2024/01/29 02:20:47;;;;;;;13.63;2.42;;;28.60;67.80;;;;;;5081848;28;20387;-80
2024/01/29 02:23:15;;;;;;;15.07;3.22;;;28.50;67.70;;;;;;5070404;28;20024;-80
2024/01/29 02:25:42;;;;;;;8.05;2.40;;;28.50;67.60;;;;;;5084560;28;20031;-80
2024/01/29 02:28:09;;;;;;;11.00;2.53;;;28.50;67.60;;;;;;5089588;28;20058;-88
2024/01/29 02:30:37;;;;;;;11.73;2.70;;;28.50;67.80;;;;;;5075141;28;20535;-80
2024/01/29 02:33:04;;;;;;;13.80;3.10;;;28.50;67.80;;;;;;5076418;28;20036;-81
2024/01/29 02:35:32;;;;;;;12.82;2.40;;;28.50;68.00;;;;;;5076283;28;20414;-80
2024/01/29 02:37:59;;;;;;;15.13;2.70;;;28.50;67.80;;;;;;5076070;28;20375;-81
2024/01/29 02:40:27;;;;;;;15.20;3.17;;;28.50;67.80;;;;;;5075989;28;20025;-80
2024/01/29 02:42:55;;;;;;;11.95;2.65;;;28.50;67.70;;;;;;5076206;28;20371;-80
2024/01/29 02:45:23;;;;;;;15.00;2.55;;;28.60;67.80;;;;;;5075524;28;20024;-84
2024/01/29 02:47:50;;;;;;;17.73;3.30;;;28.60;67.80;;;;;;5075844;28;20044;-83
2024/01/29 02:50:18;;;;;;;13.68;2.78;;;28.60;68.00;;;;;;5075328;28;20563;-82
2024/01/29 02:52:48;;;;;;;13.75;2.92;;;28.70;68.20;;;;;;5076332;28;20501;-82
2024/01/29 02:55:18;;;;;;;13.00;3.13;;;28.70;68.20;;;;;;5076716;28;20028;-82
2024/01/29 02:57:46;;;;;;;14.60;2.95;;;28.80;67.90;;;;;;5075920;28;20029;-82
2024/01/29 03:00:16;;;;;;;12.65;2.92;;;28.70;67.80;;;;;;5075325;28;20021;-82
2024/01/29 03:02:43;;;;;;;16.38;2.90;;;28.70;67.90;;;;;;5075910;28;20422;-89
2024/01/29 03:05:11;;;;;;;15.68;2.95;;;28.80;67.90;;;;;;5075719;28;20020;-82
2024/01/29 03:07:38;;;;;;;14.90;2.92;;;28.80;67.90;;;;;;5066583;28;20085;-80
2024/01/29 03:10:06;;;;;;;14.43;3.20;;;28.80;68.00;;;;;;5075796;28;20114;-81
2024/01/29 03:12:33;;;;;;;17.52;3.35;;;28.80;68.10;;;;;;5075981;28;20032;-83
2024/01/29 03:15:01;;;;;;;17.90;2.90;;;28.80;67.70;;;;;;5077416;28;20020;-81
2024/01/29 03:17:32;;;;;;;13.95;2.90;;;28.80;68.10;;;;;;5070281;28;20040;-81
2024/01/29 03:19:59;;;;;;;11.95;2.80;;;28.80;67.80;;;;;;5078671;28;20613;-82
2024/01/29 03:22:27;;;;;;;12.93;3.55;;;28.80;67.80;;;;;;5081208;28;20360;-84
2024/01/29 03:24:54;;;;;;;17.75;3.33;;;28.80;67.60;;;;;;5081747;28;20020;-82
2024/01/29 03:27:22;;;;;;;14.98;2.83;;;28.80;67.80;;;;;;5082991;28;20027;-87
2024/01/29 03:29:49;;;;;;;11.30;2.63;;;28.90;67.80;;;;;;5078238;28;20440;-81
2024/01/29 03:32:18;;;;;;;10.82;2.60;;;28.80;67.80;;;;;;5076406;28;20111;-83
2024/01/29 03:34:45;;;;;;;14.63;2.85;;;28.90;67.70;;;;;;5078182;28;20041;-83
2024/01/29 03:37:13;;;;;;;17.73;2.80;;;28.90;67.70;;;;;;5067555;28;20115;-82
2024/01/29 03:39:40;;;;;;;14.82;3.15;;;28.80;67.50;;;;;;5075340;28;20028;-84
2024/01/29 03:42:08;;;;;;;11.63;2.42;;;28.80;67.70;;;;;;5078613;28;20032;-85
2024/01/29 03:44:37;;;;;;;12.65;2.67;;;28.80;68.00;;;;;;5081592;28;20502;-81
2024/01/29 03:47:05;;;;;;;13.07;3.40;;;28.80;68.10;;;;;;5075969;28;20024;-81
2024/01/29 03:49:32;;;;;;;10.30;2.42;;;28.80;68.30;;;;;;5079801;28;20063;-82
2024/01/29 03:51:59;;;;;;;15.82;2.67;;;28.80;68.00;;;;;;5080861;28;20035;-82
2024/01/29 03:54:27;;;;;;;11.75;2.75;;;28.90;67.80;;;;;;5080884;28;20032;-82
2024/01/29 03:56:54;;;;;;;12.52;2.92;;;28.90;67.70;;;;;;5078997;28;20118;-86
2024/01/29 03:59:24;;;;;;;11.50;2.45;;;28.90;67.50;;;;;;5069497;28;20021;-86
2024/01/29 04:01:52;;;;;;;11.20;3.03;;;28.80;67.50;;;;;;5067845;28;20031;-81
2024/01/29 04:04:19;;;;;;;13.07;3.00;;;28.80;67.70;;;;;;5063116;28;20020;-80
2024/01/29 04:06:48;;;;;;;15.73;2.95;;;28.80;67.80;;;;;;5066588;28;20033;-82
2024/01/29 04:09:20;;;;;;;18.55;3.17;;;28.80;67.90;;;;;;5083022;28;20025;-91
2024/01/29 04:11:51;;;;;;;13.40;2.63;;;28.80;68.10;;;;;;5087137;28;20024;-86
2024/01/29 04:14:21;;;;;;;14.63;2.80;;;28.80;68.00;;;;;;5081559;28;20096;-82
2024/01/29 04:16:49;;;;;;;15.23;3.67;;;28.80;68.10;;;;;;5073674;28;20131;-83
2024/01/29 04:19:17;;;;;;;12.70;2.67;;;28.80;68.40;;;;;;5074980;28;20373;-82
2024/01/29 04:21:45;;;;;;;13.27;3.00;;;28.80;68.30;;;;;;5073854;28;20021;-83
2024/01/29 04:24:12;;;;;;;14.52;2.78;;;28.70;68.30;;;;;;5073776;28;20037;-82
2024/01/29 04:26:40;;;;;;;12.10;2.90;;;28.70;68.40;;;;;;5057693;28;20025;-82
2024/01/29 04:29:11;;;;;;;18.25;3.40;;;28.70;68.20;;;;;;5063686;28;20063;-82
2024/01/29 04:31:38;;;;;;;11.35;2.92;;;28.70;68.70;;;;;;5065750;28;20035;-83
2024/01/29 04:34:06;;;;;;;14.07;3.17;;;28.70;68.60;;;;;;5060888;28;20106;-82
2024/01/29 04:36:34;;;;;;;8.98;2.50;;;28.80;68.70;;;;;;5069834;28;20023;-89
2024/01/29 04:39:03;;;;;;;18.20;2.75;;;28.80;68.70;;;;;;5052971;28;20398;-82
2024/01/29 04:41:35;;;;;;;12.85;2.45;;;28.80;68.70;;;;;;5057205;28;20043;-82
2024/01/29 04:44:02;;;;;;;15.20;3.08;;;28.80;68.60;;;;;;5054023;28;20475;-80
2024/01/29 04:46:30;;;;;;;9.30;2.55;;;28.80;68.70;;;;;;5067281;28;20032;-81
2024/01/29 04:48:58;;;;;;;10.65;2.70;;;28.80;68.70;;;;;;5072371;28;20361;-80
2024/01/29 04:51:27;;;;;;;14.35;3.15;;;28.80;68.80;;;;;;5069770;28;20499;-82
2024/01/29 04:53:54;;;;;;;14.93;3.00;;;28.80;68.80;;;;;;5053226;28;20041;-78
2024/01/29 04:56:21;;;;;;;11.88;2.65;;;28.70;68.80;;;;;;5072237;28;20039;-80
2024/01/29 04:58:49;;;;;;;13.07;2.97;;;28.70;68.90;;;;;;5077338;28;20032;-80
2024/01/29 05:01:17;;;;;;;13.10;3.00;;;28.70;69.10;;;;;;5046261;28;20036;-80
2024/01/29 05:03:45;;;;;;;16.55;2.65;;;28.70;69.10;;;;;;5060436;28;20515;-81
2024/01/29 05:06:13;;;;;;;15.07;3.00;;;28.70;69.30;;;;;;5064824;28;20115;-81
2024/01/29 05:08:40;;;;;;;14.20;3.15;;;28.60;69.30;;;;;;5053745;28;20040;-80
2024/01/29 05:11:07;;;;;;;13.93;3.50;;;28.70;69.50;;;;;;5059958;28;20047;-80
2024/01/29 05:13:35;;;;;;;11.68;2.70;;;28.70;69.60;;;;;;5076576;28;20437;-82
2024/01/29 05:16:02;;;;;;;17.25;3.25;;;28.70;69.60;;;;;;5067928;28;20067;-83
2024/01/29 05:18:29;;;;;;;17.75;3.00;;;28.80;69.40;;;;;;5066039;28;20043;-81
2024/01/29 05:20:57;;;;;;;13.82;3.35;;;28.80;69.50;;;;;;5064322;28;20027;-82
2024/01/29 05:23:27;;;;;;;12.88;3.15;;;28.80;69.50;;;;;;5072394;28;20100;-82
2024/01/29 05:25:55;;;;;;;11.98;2.50;;;28.80;69.20;;;;;;5077775;28;20032;-80
2024/01/29 05:28:22;;;;;;;19.30;3.42;;;28.80;69.50;;;;;;5071181;28;20068;-82
2024/01/29 05:30:52;;;;;;;13.05;3.08;;;28.80;69.50;;;;;;5060303;28;20028;-82
2024/01/29 05:33:21;;;;;;;21.40;3.35;;;28.80;69.70;;;;;;5079789;28;20032;-82
2024/01/29 05:35:48;;;;;;;13.75;2.70;;;28.80;69.60;;;;;;5070685;28;20115;-82
2024/01/29 05:38:15;;;;;;;16.90;3.67;;;28.80;69.60;;;;;;5075443;28;20025;-85
2024/01/29 05:40:44;;;;;;;17.60;3.42;;;28.80;69.50;;;;;;5070587;28;20032;-83
2024/01/29 05:43:15;;;;;;;15.20;3.05;;;28.80;69.80;;;;;;5082146;28;20024;-81
2024/01/29 05:45:43;;;;;;;16.52;3.00;;;28.80;69.90;;;;;;5075377;28;20100;-79
2024/01/29 05:48:10;;;;;;;16.80;3.28;;;28.80;69.90;;;;;;5071334;28;20029;-83
2024/01/29 05:50:37;;;;;;;12.88;3.05;;;28.80;69.90;;;;;;5081604;28;20024;-82
2024/01/29 05:53:07;;;;;;;16.08;3.15;;;28.80;69.80;;;;;;5066317;28;20043;-81
2024/01/29 05:55:34;;;;;;;14.13;3.20;;;28.70;69.80;;;;;;5088250;28;20103;-80
2024/01/29 05:58:04;;;;;;;17.80;3.17;;;28.70;69.80;;;;;;5067985;28;20031;-81
2024/01/29 06:00:32;;;;;;;18.52;3.75;;;28.80;70.00;;;;;;5070612;28;20021;-81
2024/01/29 06:02:59;;;;;;;18.75;3.10;;;28.80;70.00;;;;;;5071580;28;20094;-80
2024/01/29 06:05:26;;;;;;;14.23;3.38;;;28.70;70.20;;;;;;5081559;28;20023;-85
2024/01/29 06:07:55;;;;;;;15.63;3.45;;;28.70;70.00;;;;;;5068661;28;20382;-82
2024/01/29 06:10:24;;;;;;;17.20;4.03;;;28.80;70.00;;;;;;5074134;28;20021;-82
2024/01/29 06:12:51;;;;;;;14.48;3.53;;;28.80;69.90;;;;;;5072439;28;20039;-81
2024/01/29 06:15:19;;;;;;;17.17;3.67;;;28.80;69.80;;;;;;5072920;28;20025;-80
2024/01/29 06:17:46;;;;;;;15.65;3.05;;;28.80;69.70;;;;;;5064148;28;20503;-81
2024/01/29 06:20:14;;;;;;;15.98;3.55;;;28.70;69.70;;;;;;5075127;28;20038;-81
2024/01/29 06:22:41;;;;;;;17.83;3.67;;;28.70;70.00;;;;;;5072490;28;20449;-81
2024/01/29 06:25:09;;;;;;;17.42;3.50;;;28.70;70.30;;;;;;5072295;28;20029;-81
2024/01/29 06:27:40;;;;;;;20.42;3.50;;;28.60;70.40;;;;;;5071786;28;20044;-81
2024/01/29 06:30:08;;;;;;;16.88;3.60;;;28.60;70.30;;;;;;5072323;28;20107;-81
2024/01/29 06:32:35;;;;;;;13.07;3.05;;;28.60;70.40;;;;;;5072490;28;20074;-80
2024/01/29 06:35:03;;;;;;;15.75;3.30;;;28.60;70.50;;;;;;5073456;28;20056;-80
2024/01/29 06:37:32;;;;;;;16.48;3.17;;;28.60;70.50;;;;;;5075769;28;20016;-81
2024/01/29 06:40:00;;;;;;;11.00;2.70;;;28.60;70.50;;;;;;5073996;28;20086;-81
2024/01/29 06:42:27;;;;;;;17.80;4.22;;;28.60;70.50;;;;;;5077301;28;20020;-82
2024/01/29 06:44:55;;;;;;;16.30;3.05;;;28.70;70.60;;;;;;5076387;28;20032;-81
2024/01/29 06:47:23;;;;;;;14.45;3.58;;;28.70;70.40;;;;;;5076026;28;20028;-82
2024/01/29 06:49:50;;;;;;;20.10;3.72;;;28.70;70.50;;;;;;5075487;28;20021;-80
2024/01/29 06:52:18;;;;;;;16.45;3.15;;;28.70;70.30;;;;;;5075528;28;20051;-82
2024/01/29 06:54:45;;;;;;;14.43;3.10;;;28.70;70.30;;;;;;5076952;28;20107;-81
2024/01/29 06:57:13;;;;;;;18.02;3.60;;;28.70;70.30;;;;;;5078663;28;20090;-79
2024/01/29 06:59:40;;;;;;;13.52;3.53;;;28.70;70.40;;;;;;5075483;28;20450;-79
2024/01/29 07:02:08;;;;;;;19.10;3.42;;;28.70;70.40;;;;;;5082035;28;20028;-80
2024/01/29 07:04:35;;;;;;;13.63;2.95;;;28.70;70.50;;;;;;5075297;28;20415;-81
2024/01/29 07:07:03;;;;;;;12.70;3.03;;;28.70;70.40;;;;;;5075299;28;20517;-80
2024/01/29 07:09:31;;;;;;;21.27;3.60;;;28.70;70.50;;;;;;5077363;28;20055;-78
2024/01/29 07:12:01;;;;;;;16.50;3.72;;;28.70;70.60;;;;;;5073302;28;20348;-80
2024/01/29 07:14:29;;;;;;;16.85;3.40;;;28.60;70.60;;;;;;5074487;28;20415;-79
2024/01/29 07:16:57;;;;;;;17.20;3.20;;;28.60;70.70;;;;;;5074679;28;20079;-80
2024/01/29 07:19:33;;;;;;;15.00;3.92;;;28.60;70.70;;;;;;5081581;28;20388;-80
2024/01/29 07:22:04;;;;;;;21.05;3.75;;;28.50;70.80;;;;;;5074456;28;20028;-79
2024/01/29 07:24:32;;;;;;;19.92;4.15;;;28.50;70.80;;;;;;5074317;28;20031;-80
2024/01/29 07:27:00;;;;;;;23.40;4.40;;;28.50;70.90;;;;;;5074454;28;20055;-80
2024/01/29 07:29:29;;;;;;;15.07;3.65;;;28.40;71.10;;;;;;5074510;28;20032;-79
2024/01/29 07:31:57;;;;;;;15.57;3.75;;;28.40;71.00;;;;;;5074395;28;20364;-78
2024/01/29 07:34:26;;;;;;;18.65;3.42;;;28.40;71.10;;;;;;5074372;28;20032;-78
2024/01/29 07:36:53;;;;;;;21.77;4.60;;;28.30;71.20;;;;;;5080689;28;20352;-80
2024/01/29 07:39:21;;;;;;;20.33;4.07;;;28.30;71.50;;;;;;5074271;28;20044;-78
2024/01/29 07:41:48;;;;;;;22.75;4.40;;;28.30;71.60;;;;;;5074350;28;20115;-82
2024/01/29 07:44:19;;;;;;;11.73;3.25;;;28.20;71.80;;;;;;5073439;28;20063;-78
2024/01/29 07:46:46;;;;;;;16.25;3.30;;;28.10;71.90;;;;;;5074619;28;20032;-82
2024/01/29 07:49:14;;;;;;;13.65;3.28;;;28.10;72.10;;;;;;5074082;28;20418;-81
2024/01/29 07:51:41;;;;;;;18.90;3.90;;;28.00;72.20;;;;;;5074258;28;20032;-80
2024/01/29 07:54:12;;;;;;;18.15;3.47;;;28.00;72.40;;;;;;5073310;28;20036;-78
2024/01/29 07:56:41;;;;;;;16.02;3.63;;;28.00;72.40;;;;;;5074112;28;20044;-80
2024/01/29 07:59:09;;;;;;;21.00;3.90;;;27.90;72.60;;;;;;5074133;28;20496;-79
2024/01/29 08:01:36;;;;;;;19.65;4.88;;;27.90;72.80;;;;;;5072223;28;20028;-79
2024/01/29 08:04:05;;;;;;;19.23;4.25;;;27.80;73.20;;;;;;5075852;28;20088;-79
2024/01/29 08:06:33;;;;;;;15.75;3.83;;;27.80;73.40;;;;;;5079219;28;20052;-80
2024/01/29 08:09:02;;;;;;;14.13;2.92;;;27.70;73.40;;;;;;5073768;28;20024;-80
2024/01/29 08:11:30;;;;;;;17.55;3.53;;;27.60;73.50;;;;;;5068798;28;20074;-80
2024/01/29 08:13:58;;;;;;;20.77;4.03;;;27.60;73.70;;;;;;5073245;28;20039;-79
2024/01/29 08:16:28;;;;;;;16.13;3.97;;;27.60;74.10;;;;;;5073698;28;20040;-79
2024/01/29 08:19:00;;;;;;;15.82;3.28;;;27.50;74.20;;;;;;5073909;28;20029;-79
2024/01/29 08:21:27;;;;;;;16.67;3.80;;;27.40;74.50;;;;;;5080255;28;20021;-81
2024/01/29 08:23:56;;;;;;;20.30;3.78;;;27.50;74.80;;;;;;5073158;28;20491;-79
2024/01/29 08:26:27;;;;;;;21.17;4.50;;;27.40;74.70;;;;;;5065134;28;20357;-80
2024/01/29 08:28:54;;;;;;;24.65;5.13;;;27.40;75.20;;;;;;5073593;28;20497;-78
2024/01/29 08:31:24;;;;;;;20.02;4.47;;;27.30;75.30;;;;;;5073409;28;20028;-79
2024/01/29 08:33:53;;;;;;;15.43;4.25;;;27.30;75.40;;;;;;5073273;28;20056;-80
2024/01/29 08:36:23;;;;;;;21.65;5.25;;;27.30;75.60;;;;;;5073014;28;20472;-78
2024/01/29 08:38:51;;;;;;;20.15;4.95;;;27.20;75.80;;;;;;5072144;28;20416;-80
2024/01/29 08:41:18;;;;;;;21.83;4.40;;;27.20;75.80;;;;;;5073189;28;20021;-80
2024/01/29 08:43:45;;;;;;;19.73;3.55;;;27.20;76.10;;;;;;5072854;28;20493;-79
2024/01/29 08:46:13;;;;;;;19.55;4.28;;;27.10;76.10;;;;;;5073470;28;20070;-79
2024/01/29 08:48:40;;;;;;;19.23;4.20;;;27.10;76.30;;;;;;5073063;28;20087;-79
2024/01/29 08:51:11;;;;;;;21.85;4.13;;;27.10;76.60;;;;;;5065692;28;20384;-80
2024/01/29 08:53:38;;;;;;;15.88;3.58;;;27.00;76.70;;;;;;5072879;28;20039;-82
2024/01/29 08:56:11;;;;;;;21.20;4.05;;;26.90;76.80;;;;;;5061675;28;20017;-79
2024/01/29 08:58:38;;;;;;;24.05;4.63;;;26.90;76.90;;;;;;5074164;28;20470;-79
2024/01/29 09:01:06;;;;;;;20.80;4.15;;;26.90;77.10;;;;;;5072731;28;20029;-80
2024/01/29 09:03:33;;;;;;;20.48;4.20;;;26.80;77.20;;;;;;5072860;28;20036;-82
2024/01/29 09:06:00;;;;;;;15.48;3.30;;;26.80;77.30;;;;;;5072439;28;20025;-80
2024/01/29 09:08:28;;;;;;;18.90;4.60;;;26.80;77.30;;;;;;5072572;28;20032;-79
2024/01/29 09:10:55;;;;;;;26.17;4.22;;;26.80;77.40;;;;;;5072863;28;20098;-79
2024/01/29 09:13:23;;;;;;;19.55;4.40;;;26.70;77.50;;;;;;5072535;28;20086;-79
2024/01/29 09:15:50;;;;;;;21.88;4.20;;;26.70;78.00;;;;;;5070654;28;20387;-79
2024/01/29 09:18:17;;;;;;;17.88;4.20;;;26.70;77.80;;;;;;5074806;28;20020;-83
2024/01/29 09:20:45;;;;;;;18.83;4.20;;;26.70;77.90;;;;;;5072083;28;20017;-79
2024/01/29 09:23:12;;;;;;;17.67;3.95;;;26.60;77.70;;;;;;5072132;28;20077;-84
2024/01/29 09:25:39;;;;;;;24.73;4.32;;;26.60;78.00;;;;;;5067747;28;20029;-79
2024/01/29 09:28:07;;;;;;;24.73;4.10;;;26.60;78.00;;;;;;5072527;28;20057;-81
2024/01/29 09:30:34;;;;;;;18.75;4.13;;;26.60;78.00;;;;;;5073504;28;20435;-80
2024/01/29 09:33:02;;;;;;;18.48;4.18;;;26.60;77.80;;;;;;5070882;28;20104;-81
2024/01/29 09:35:29;;;;;;;22.08;4.32;;;26.50;78.00;;;;;;5071921;28;20395;-80
2024/01/29 09:37:57;;;;;;;20.33;4.28;;;26.50;78.00;;;;;;5076440;28;20031;-78
2024/01/29 09:40:24;;;;;;;22.58;4.25;;;26.50;78.20;;;;;;5073561;28;20107;-79
2024/01/29 09:42:57;;;;;;;22.75;4.20;;;26.50;78.30;;;;;;5071737;28;20033;-79
2024/01/29 09:45:28;;;;;;;20.58;3.85;;;26.50;78.30;;;;;;5071707;28;20023;-78
2024/01/29 09:47:56;;;;;;;23.90;4.68;;;26.40;78.30;;;;;;5071812;28;20040;-79
2024/01/29 09:50:25;;;;;;;22.38;4.88;;;26.30;78.30;;;;;;5071879;28;20032;-79
2024/01/29 09:52:55;;;;;;;15.38;3.53;;;26.40;78.50;;;;;;5072083;28;20025;-79
2024/01/29 09:55:26;;;;;;;26.83;4.65;;;26.30;78.50;;;;;;5071787;28;20135;-79
2024/01/29 09:57:53;;;;;;;20.85;4.00;;;26.40;78.80;;;;;;5074834;28;20459;-78
2024/01/29 10:00:22;;;;;;;23.35;3.72;;;26.40;78.50;;;;;;5075811;28;20024;-78
2024/01/29 10:02:52;;;;;;;15.60;3.35;;;26.30;78.60;;;;;;5070356;28;20036;-81
2024/01/29 10:05:21;;;;;;;18.90;4.03;;;26.30;78.60;;;;;;5071819;28;20032;-78
2024/01/29 10:07:49;;;;;;;17.65;4.10;;;26.30;78.80;;;;;;5071570;28;20413;-78
2024/01/29 10:10:17;;;;;;;19.38;4.28;;;26.30;78.70;;;;;;5071978;28;20038;-80
2024/01/29 10:12:44;;;;;;;24.60;4.53;;;26.30;78.80;;;;;;5070217;28;20036;-79
2024/01/29 10:15:13;;;;;;;22.95;4.72;;;26.30;78.70;;;;;;5071361;28;20039;-78
2024/01/29 10:17:48;;;;;;;18.40;3.90;;;26.30;78.80;;;;;;5075510;28;20109;-80
2024/01/29 10:20:20;;;;;;;21.60;3.87;;;26.30;78.80;;;;;;5074833;28;20051;-79
2024/01/29 10:22:48;;;;;;;20.55;4.13;;;26.30;79.00;;;;;;5074910;28;20782;-78
2024/01/29 10:25:20;;;;;;;23.15;4.70;;;26.30;78.90;;;;;;5077683;28;20025;-79
2024/01/29 10:27:47;;;;;;;19.10;3.78;;;26.40;79.00;;;;;;5057449;28;20100;-83
2024/01/29 10:30:16;;;;;;;23.45;3.88;;;26.40;79.10;;;;;;5075493;28;20032;-79
2024/01/29 10:32:44;;;;;;;18.92;3.65;;;26.30;79.00;;;;;;5077613;28;20025;-78
2024/01/29 10:35:12;;;;;;;19.73;3.90;;;26.30;79.00;;;;;;5074586;28;20032;-79
2024/01/29 10:37:54;;;;;;;19.70;3.88;;;26.40;79.10;;;;;;5066991;28;20024;-79
2024/01/29 10:40:34;;;;;;;23.75;4.57;;;26.40;79.30;;;;;;5060946;28;20024;-77
2024/01/29 10:43:05;;;;;;;22.48;4.03;;;26.40;79.20;;;;;;5049872;28;20115;-76
2024/01/29 10:45:54;;;;;;;;;;;;;;;;;;;;;
2024/01/29 10:48:29;;;;;;;18.33;3.83;;;26.30;79.40;;;;;;5069167;28;20028;-77
2024/01/29 10:51:03;;;;;;;24.75;4.65;;;26.40;79.40;;;;;;5065122;28;20024;-79
2024/01/29 10:53:44;;;;;;;26.88;4.05;;;26.30;79.40;;;;;;5067505;28;20081;-80
2024/01/29 10:56:16;;;;;;;23.60;4.63;;;26.30;79.60;;;;;;5075129;28;20132;-78
2024/01/29 10:58:55;;;;;;;;;;;;;;;;;;;;;
2024/01/29 11:01:23;;;;;;;21.63;3.85;;;26.30;79.50;;;;;;5074692;28;20031;-77
2024/01/29 11:03:54;;;;;;;23.98;4.72;;;26.30;79.60;;;;;;5062516;28;20032;-78
2024/01/29 11:06:42;;;;;;;19.75;4.45;;;26.30;79.60;;;;;;5071656;28;20031;-78
2024/01/29 11:09:15;;;;;;;18.33;3.97;;;26.40;79.60;;;;;;5081439;28;20103;-77
2024/01/29 11:11:48;;;;;;;22.17;4.15;;;26.30;79.70;;;;;;5067132;28;20086;-80
2024/01/29 11:14:21;;;;;;;24.35;3.95;;;26.30;79.70;;;;;;5076764;28;20124;-81
2024/01/29 11:16:58;;;;;;;18.42;3.85;;;26.30;79.80;;;;;;5072951;28;20031;-78
2024/01/29 11:19:29;;;;;;;22.83;4.07;;;26.30;79.70;;;;;;5056694;28;20056;-80
2024/01/29 11:21:59;;;;;;;24.35;4.38;;;26.30;79.80;;;;;;5071382;28;20031;-81
2024/01/29 11:24:32;;;;;;;21.45;4.38;;;26.30;79.80;;;;;;5075331;28;20024;-80
2024/01/29 11:27:09;;;;;;;17.40;3.75;;;26.30;79.90;;;;;;5071620;28;20064;-80
2024/01/29 11:29:40;;;;;;;19.45;3.78;;;26.30;80.00;;;;;;5073866;28;20016;-80
2024/01/29 11:32:13;;;;;;;20.65;3.83;;;26.30;79.90;;;;;;5074722;28;20024;-79
2024/01/29 11:34:41;;;;;;;24.73;3.80;;;26.30;79.80;;;;;;5074377;28;20048;-78
2024/01/29 11:37:10;;;;;;;24.48;4.55;;;26.40;80.10;;;;;;5073510;28;20016;-95
2024/01/29 11:39:44;;;;;;;22.23;4.05;;;26.30;79.90;;;;;;5069847;28;20138;-79
2024/01/29 11:42:15;;;;;;;21.60;4.55;;;26.30;79.90;;;;;;5062612;28;20044;-87
2024/01/29 11:44:45;;;;;;;26.95;4.57;;;26.30;80.00;;;;;;5073193;28;20025;-83
2024/01/29 11:47:13;;;;;;;25.95;4.65;;;26.30;80.20;;;;;;5071108;28;20025;-78
2024/01/29 11:49:41;;;;;;;18.48;3.38;;;26.30;80.30;;;;;;5070890;28;20028;-93
2024/01/29 11:52:08;;;;;;;22.80;4.20;;;26.30;80.30;;;;;;5069740;28;20025;-80
2024/01/29 11:54:36;;;;;;;23.48;4.20;;;26.30;80.40;;;;;;5073357;28;20028;-78
2024/01/29 11:57:04;;;;;;;29.38;4.82;;;26.30;80.20;;;;;;5070979;28;20480;-79
2024/01/29 11:59:31;;;;;;;30.15;4.72;;;26.30;80.50;;;;;;5070820;28;20361;-78
2024/01/29 12:01:59;;;;;;;19.30;3.67;;;26.20;80.60;;;;;;5062007;28;20029;-79
2024/01/29 12:04:27;;;;;;;27.45;4.22;;;26.20;80.60;;;;;;5073199;28;20016;-79
2024/01/29 12:06:55;;;;;;;13.90;3.38;;;26.30;80.70;;;;;;5071845;28;20070;-79
2024/01/29 12:09:22;;;;;;;28.48;4.20;;;26.20;80.60;;;;;;5072044;28;20020;-80
2024/01/29 12:11:50;;;;;;;32.10;4.65;;;26.20;80.80;;;;;;5067905;28;20044;-78
2024/01/29 12:14:17;;;;;;;21.67;3.92;;;26.20;80.90;;;;;;5067528;28;20036;-79
2024/01/29 12:16:48;;;;;;;22.70;3.97;;;26.20;80.90;;;;;;5072001;28;20036;-78
2024/01/29 12:19:16;;;;;;;17.58;3.70;;;26.20;80.90;;;;;;5072407;28;20028;-78
2024/01/29 12:21:43;;;;;;;14.25;2.75;;;26.20;80.70;;;;;;5074185;28;20158;-78
2024/01/29 12:24:10;;;;;;;24.45;4.40;;;26.20;80.70;;;;;;5074039;28;20107;-79
2024/01/29 12:26:39;;;;;;;14.68;3.10;;;26.20;81.00;;;;;;5072871;28;20135;-79
2024/01/29 12:29:07;;;;;;;18.50;3.83;;;26.20;80.90;;;;;;5072763;28;20488;-80
2024/01/29 12:31:41;;;;;;;19.25;3.47;;;26.20;80.70;;;;;;5070723;28;20426;-80
2024/01/29 12:34:08;;;;;;;18.55;3.67;;;26.20;80.80;;;;;;5074029;28;20482;-80
2024/01/29 12:36:36;;;;;;;29.30;4.63;;;26.20;80.70;;;;;;5074024;28;20013;-79
2024/01/29 12:39:03;;;;;;;23.98;4.38;;;26.20;80.90;;;;;;5076718;28;20031;-79
2024/01/29 12:41:39;;;;;;;20.33;4.07;;;26.20;80.80;;;;;;5068490;28;20466;-79
2024/01/29 12:44:13;;;;;;;25.77;4.18;;;26.20;80.80;;;;;;5071832;28;20035;-82
2024/01/29 12:46:41;;;;;;;35.57;4.50;;;26.20;80.80;;;;;;5072529;28;20024;-81